sensor_id;sensor_type;location;lat;lon;timestamp;P1;durP1;ratioP1;P2;durP2;ratioP2
3149;SDS011;32503;47.748;8.960;2022-07-24T00:01:14;13.50;;;12.30;;
3149;SDS011;32503;47.748;8.960;2022-07-24T00:03:42;13.23;;;12.27;;
3149;SDS011;32503;47.748;8.960;2022-07-24T00:06:10;15.40;;;14.00;;
3149;SDS011;32503;47.748;8.960;2022-07-24T00:08:37;14.30;;;13.10;;
3149;SDS011;32503;47.748;8.960;2022-07-24T00:11:05;13.03;;;12.13;;
3149;SDS011;32503;47.748;8.960;2022-07-24T00:13:32;14.20;;;13.10;;
3149;SDS011;32503;47.748;8.960;2022-07-24T00:15:59;14.27;;;13.27;;
3149;SDS011;32503;47.748;8.960;2022-07-24T00:18:27;14.87;;;13.70;;
3149;SDS011;32503;47.748;8.960;2022-07-24T00:20:55;14.93;;;13.63;;
3149;SDS011;32503;47.748;8.960;2022-07-24T00:23:22;15.90;;;14.60;;
3149;SDS011;32503;47.748;8.960;2022-07-24T00:25:50;15.80;;;14.60;;
3149;SDS011;32503;47.748;8.960;2022-07-24T00:28:18;16.40;;;15.00;;
3149;SDS011;32503;47.748;8.960;2022-07-24T00:30:45;15.07;;;13.87;;
3149;SDS011;32503;47.748;8.960;2022-07-24T00:33:13;14.97;;;13.63;;
3149;SDS011;32503;47.748;8.960;2022-07-24T00:35:40;15.33;;;14.00;;
3149;SDS011;32503;47.748;8.960;2022-07-24T00:38:08;15.30;;;14.10;;
3149;SDS011;32503;47.748;8.960;2022-07-24T00:40:36;15.50;;;14.00;;
3149;SDS011;32503;47.748;8.960;2022-07-24T00:43:03;13.90;;;12.83;;
3149;SDS011;32503;47.748;8.960;2022-07-24T00:45:30;14.33;;;13.13;;
3149;SDS011;32503;47.748;8.960;2022-07-24T00:47:57;15.13;;;13.90;;
3149;SDS011;32503;47.748;8.960;2022-07-24T00:50:25;14.90;;;13.80;;
3149;SDS011;32503;47.748;8.960;2022-07-24T00:52:52;14.20;;;13.10;;
3149;SDS011;32503;47.748;8.960;2022-07-24T00:55:21;15.47;;;14.17;;
3149;SDS011;32503;47.748;8.960;2022-07-24T00:57:49;15.90;;;14.60;;
3149;SDS011;32503;47.748;8.960;2022-07-24T01:00:17;15.83;;;14.53;;
3149;SDS011;32503;47.748;8.960;2022-07-24T01:02:46;14.67;;;13.57;;
3149;SDS011;32503;47.748;8.960;2022-07-24T01:05:15;14.70;;;13.50;;
3149;SDS011;32503;47.748;8.960;2022-07-24T01:07:43;16.03;;;14.63;;
3149;SDS011;32503;47.748;8.960;2022-07-24T01:10:11;15.73;;;14.43;;
3149;SDS011;32503;47.748;8.960;2022-07-24T01:12:40;14.80;;;13.80;;
3149;SDS011;32503;47.748;8.960;2022-07-24T01:15:08;16.40;;;13.70;;
3149;SDS011;32503;47.748;8.960;2022-07-24T01:17:37;14.50;;;13.40;;
3149;SDS011;32503;47.748;8.960;2022-07-24T01:20:08;16.37;;;14.80;;
3149;SDS011;32503;47.748;8.960;2022-07-24T01:22:38;14.90;;;13.70;;
3149;SDS011;32503;47.748;8.960;2022-07-24T01:25:05;14.83;;;13.63;;
3149;SDS011;32503;47.748;8.960;2022-07-24T01:27:33;15.67;;;14.37;;
3149;SDS011;32503;47.748;8.960;2022-07-24T01:30:00;18.83;;;14.13;;
3149;SDS011;32503;47.748;8.960;2022-07-24T01:32:27;15.17;;;13.87;;
3149;SDS011;32503;47.748;8.960;2022-07-24T01:34:54;15.10;;;13.57;;
3149;SDS011;32503;47.748;8.960;2022-07-24T01:37:21;14.23;;;12.80;;
3149;SDS011;32503;47.748;8.960;2022-07-24T01:39:50;13.87;;;12.87;;
3149;SDS011;32503;47.748;8.960;2022-07-24T01:42:17;15.20;;;13.90;;
3149;SDS011;32503;47.748;8.960;2022-07-24T01:44:45;15.50;;;14.20;;
3149;SDS011;32503;47.748;8.960;2022-07-24T01:47:13;14.97;;;13.77;;
3149;SDS011;32503;47.748;8.960;2022-07-24T01:49:40;16.87;;;15.37;;
3149;SDS011;32503;47.748;8.960;2022-07-24T01:52:07;17.03;;;15.53;;
3149;SDS011;32503;47.748;8.960;2022-07-24T01:54:35;18.13;;;16.50;;
3149;SDS011;32503;47.748;8.960;2022-07-24T01:57:03;17.87;;;16.27;;
3149;SDS011;32503;47.748;8.960;2022-07-24T01:59:30;17.00;;;15.40;;
3149;SDS011;32503;47.748;8.960;2022-07-24T02:01:57;15.00;;;13.67;;
3149;SDS011;32503;47.748;8.960;2022-07-24T02:04:24;15.17;;;13.77;;
3149;SDS011;32503;47.748;8.960;2022-07-24T02:06:51;15.47;;;14.13;;
3149;SDS011;32503;47.748;8.960;2022-07-24T02:09:19;14.60;;;13.30;;
3149;SDS011;32503;47.748;8.960;2022-07-24T02:11:46;14.17;;;13.17;;
3149;SDS011;32503;47.748;8.960;2022-07-24T02:14:14;14.20;;;13.17;;
3149;SDS011;32503;47.748;8.960;2022-07-24T02:16:41;14.43;;;13.30;;
3149;SDS011;32503;47.748;8.960;2022-07-24T02:19:08;14.37;;;13.27;;
3149;SDS011;32503;47.748;8.960;2022-07-24T02:21:36;14.33;;;13.10;;
3149;SDS011;32503;47.748;8.960;2022-07-24T02:24:03;14.00;;;12.90;;
3149;SDS011;32503;47.748;8.960;2022-07-24T02:26:30;13.70;;;12.60;;
3149;SDS011;32503;47.748;8.960;2022-07-24T02:28:58;14.70;;;13.60;;
3149;SDS011;32503;47.748;8.960;2022-07-24T02:31:27;14.10;;;13.00;;
3149;SDS011;32503;47.748;8.960;2022-07-24T02:33:54;14.17;;;13.17;;
3149;SDS011;32503;47.748;8.960;2022-07-24T02:36:21;13.47;;;12.47;;
3149;SDS011;32503;47.748;8.960;2022-07-24T02:38:48;15.07;;;13.77;;
3149;SDS011;32503;47.748;8.960;2022-07-24T02:41:16;14.10;;;13.00;;
3149;SDS011;32503;47.748;8.960;2022-07-24T02:43:43;13.53;;;12.43;;
3149;SDS011;32503;47.748;8.960;2022-07-24T02:46:11;13.87;;;12.87;;
3149;SDS011;32503;47.748;8.960;2022-07-24T02:48:39;13.03;;;12.13;;
3149;SDS011;32503;47.748;8.960;2022-07-24T02:51:06;14.57;;;13.20;;
3149;SDS011;32503;47.748;8.960;2022-07-24T02:53:33;14.40;;;13.20;;
3149;SDS011;32503;47.748;8.960;2022-07-24T02:56:00;14.07;;;12.97;;
3149;SDS011;32503;47.748;8.960;2022-07-24T02:58:28;14.73;;;13.50;;
3149;SDS011;32503;47.748;8.960;2022-07-24T03:00:55;15.20;;;13.90;;
3149;SDS011;32503;47.748;8.960;2022-07-24T03:03:22;14.13;;;12.93;;
3149;SDS011;32503;47.748;8.960;2022-07-24T03:05:51;14.50;;;13.27;;
3149;SDS011;32503;47.748;8.960;2022-07-24T03:08:18;15.33;;;14.10;;
3149;SDS011;32503;47.748;8.960;2022-07-24T03:10:45;14.53;;;13.33;;
3149;SDS011;32503;47.748;8.960;2022-07-24T03:13:12;13.83;;;12.83;;
3149;SDS011;32503;47.748;8.960;2022-07-24T03:15:39;13.73;;;12.70;;
3149;SDS011;32503;47.748;8.960;2022-07-24T03:18:06;14.23;;;13.13;;
3149;SDS011;32503;47.748;8.960;2022-07-24T03:20:33;15.23;;;14.03;;
3149;SDS011;32503;47.748;8.960;2022-07-24T03:23:02;15.33;;;14.07;;
3149;SDS011;32503;47.748;8.960;2022-07-24T03:25:29;14.07;;;12.97;;
3149;SDS011;32503;47.748;8.960;2022-07-24T03:27:56;14.70;;;13.50;;
3149;SDS011;32503;47.748;8.960;2022-07-24T03:30:23;13.60;;;12.70;;
3149;SDS011;32503;47.748;8.960;2022-07-24T03:32:50;14.73;;;13.63;;
3149;SDS011;32503;47.748;8.960;2022-07-24T03:35:17;15.10;;;13.90;;
3149;SDS011;32503;47.748;8.960;2022-07-24T03:37:44;15.27;;;13.90;;
3149;SDS011;32503;47.748;8.960;2022-07-24T03:40:13;15.00;;;13.70;;
3149;SDS011;32503;47.748;8.960;2022-07-24T03:42:40;13.97;;;12.87;;
3149;SDS011;32503;47.748;8.960;2022-07-24T03:45:07;14.43;;;13.23;;
3149;SDS011;32503;47.748;8.960;2022-07-24T03:47:35;13.63;;;12.53;;
3149;SDS011;32503;47.748;8.960;2022-07-24T03:50:03;14.90;;;13.50;;
3149;SDS011;32503;47.748;8.960;2022-07-24T03:52:31;14.50;;;13.30;;
3149;SDS011;32503;47.748;8.960;2022-07-24T03:54:58;15.47;;;14.10;;
3149;SDS011;32503;47.748;8.960;2022-07-24T03:57:26;14.60;;;13.50;;
3149;SDS011;32503;47.748;8.960;2022-07-24T03:59:54;15.80;;;14.40;;
3149;SDS011;32503;47.748;8.960;2022-07-24T04:02:21;16.77;;;15.17;;
3149;SDS011;32503;47.748;8.960;2022-07-24T04:04:48;14.20;;;13.10;;
3149;SDS011;32503;47.748;8.960;2022-07-24T04:07:15;15.07;;;13.87;;
3149;SDS011;32503;47.748;8.960;2022-07-24T04:09:42;15.47;;;14.00;;
3149;SDS011;32503;47.748;8.960;2022-07-24T04:12:09;15.03;;;13.80;;
3149;SDS011;32503;47.748;8.960;2022-07-24T04:14:37;16.10;;;14.80;;
3149;SDS011;32503;47.748;8.960;2022-07-24T04:17:04;15.50;;;13.90;;
3149;SDS011;32503;47.748;8.960;2022-07-24T04:19:32;17.37;;;15.27;;
3149;SDS011;32503;47.748;8.960;2022-07-24T04:21:59;15.87;;;14.37;;
3149;SDS011;32503;47.748;8.960;2022-07-24T04:24:26;17.17;;;15.30;;
3149;SDS011;32503;47.748;8.960;2022-07-24T04:26:53;16.57;;;15.17;;
3149;SDS011;32503;47.748;8.960;2022-07-24T04:29:20;16.13;;;14.90;;
3149;SDS011;32503;47.748;8.960;2022-07-24T04:31:48;16.40;;;14.97;;
3149;SDS011;32503;47.748;8.960;2022-07-24T04:34:16;15.37;;;14.07;;
3149;SDS011;32503;47.748;8.960;2022-07-24T04:36:43;16.40;;;15.03;;
3149;SDS011;32503;47.748;8.960;2022-07-24T04:39:10;22.70;;;20.50;;
3149;SDS011;32503;47.748;8.960;2022-07-24T04:41:37;24.03;;;20.70;;
3149;SDS011;32503;47.748;8.960;2022-07-24T04:44:04;21.00;;;18.80;;
3149;SDS011;32503;47.748;8.960;2022-07-24T04:46:31;23.80;;;21.40;;
3149;SDS011;32503;47.748;8.960;2022-07-24T04:48:59;23.50;;;19.13;;
3149;SDS011;32503;47.748;8.960;2022-07-24T04:51:26;20.17;;;17.40;;
3149;SDS011;32503;47.748;8.960;2022-07-24T04:53:53;16.23;;;14.90;;
3149;SDS011;32503;47.748;8.960;2022-07-24T04:56:21;16.57;;;15.17;;
3149;SDS011;32503;47.748;8.960;2022-07-24T04:58:48;17.70;;;16.00;;
3149;SDS011;32503;47.748;8.960;2022-07-24T05:01:15;16.77;;;15.33;;
3149;SDS011;32503;47.748;8.960;2022-07-24T05:03:42;16.20;;;14.90;;
3149;SDS011;32503;47.748;8.960;2022-07-24T05:06:11;15.67;;;14.27;;
3149;SDS011;32503;47.748;8.960;2022-07-24T05:08:38;16.97;;;15.40;;
3149;SDS011;32503;47.748;8.960;2022-07-24T05:11:05;16.93;;;15.53;;
3149;SDS011;32503;47.748;8.960;2022-07-24T05:13:32;16.90;;;15.37;;
3149;SDS011;32503;47.748;8.960;2022-07-24T05:15:59;15.37;;;13.90;;
3149;SDS011;32503;47.748;8.960;2022-07-24T05:18:26;16.90;;;15.40;;
3149;SDS011;32503;47.748;8.960;2022-07-24T05:20:53;17.00;;;15.30;;
3149;SDS011;32503;47.748;8.960;2022-07-24T05:23:22;16.93;;;15.43;;
3149;SDS011;32503;47.748;8.960;2022-07-24T05:25:50;15.17;;;13.97;;
3149;SDS011;32503;47.748;8.960;2022-07-24T05:28:17;15.20;;;14.00;;
3149;SDS011;32503;47.748;8.960;2022-07-24T05:30:44;16.90;;;15.37;;
3149;SDS011;32503;47.748;8.960;2022-07-24T05:33:11;15.20;;;14.00;;
3149;SDS011;32503;47.748;8.960;2022-07-24T05:35:38;15.17;;;14.03;;
3149;SDS011;32503;47.748;8.960;2022-07-24T05:38:06;16.33;;;15.03;;
3149;SDS011;32503;47.748;8.960;2022-07-24T05:40:34;16.43;;;15.03;;
3149;SDS011;32503;47.748;8.960;2022-07-24T05:43:07;14.57;;;13.47;;
3149;SDS011;32503;47.748;8.960;2022-07-24T05:45:34;13.37;;;12.37;;
3149;SDS011;32503;47.748;8.960;2022-07-24T05:48:01;13.70;;;12.70;;
3149;SDS011;32503;47.748;8.960;2022-07-24T05:50:28;13.53;;;12.53;;
3149;SDS011;32503;47.748;8.960;2022-07-24T05:52:55;15.97;;;14.77;;
3149;SDS011;32503;47.748;8.960;2022-07-24T05:55:22;16.57;;;14.97;;
3149;SDS011;32503;47.748;8.960;2022-07-24T05:57:51;14.83;;;13.73;;
3149;SDS011;32503;47.748;8.960;2022-07-24T06:00:18;16.23;;;15.00;;
3149;SDS011;32503;47.748;8.960;2022-07-24T06:02:45;16.50;;;15.20;;
3149;SDS011;32503;47.748;8.960;2022-07-24T06:05:12;17.87;;;16.33;;
3149;SDS011;32503;47.748;8.960;2022-07-24T06:07:40;17.60;;;16.03;;
3149;SDS011;32503;47.748;8.960;2022-07-24T06:10:08;15.73;;;14.47;;
3149;SDS011;32503;47.748;8.960;2022-07-24T06:12:35;16.60;;;15.30;;
3149;SDS011;32503;47.748;8.960;2022-07-24T06:15:04;14.87;;;13.70;;
3149;SDS011;32503;47.748;8.960;2022-07-24T06:17:32;14.70;;;13.67;;
3149;SDS011;32503;47.748;8.960;2022-07-24T06:20:00;16.90;;;15.30;;
3149;SDS011;32503;47.748;8.960;2022-07-24T06:22:27;14.30;;;13.20;;
3149;SDS011;32503;47.748;8.960;2022-07-24T06:24:54;15.33;;;14.00;;
3149;SDS011;32503;47.748;8.960;2022-07-24T06:27:21;15.50;;;14.20;;
3149;SDS011;32503;47.748;8.960;2022-07-24T06:29:48;15.13;;;14.13;;
3149;SDS011;32503;47.748;8.960;2022-07-24T06:32:17;15.50;;;14.27;;
3149;SDS011;32503;47.748;8.960;2022-07-24T06:34:44;13.40;;;12.40;;
3149;SDS011;32503;47.748;8.960;2022-07-24T06:37:11;15.63;;;14.30;;
3149;SDS011;32503;47.748;8.960;2022-07-24T06:39:38;14.00;;;13.00;;
3149;SDS011;32503;47.748;8.960;2022-07-24T06:42:05;14.40;;;13.50;;
3149;SDS011;32503;47.748;8.960;2022-07-24T06:44:32;15.00;;;13.77;;
3149;SDS011;32503;47.748;8.960;2022-07-24T06:47:01;14.90;;;13.80;;
3149;SDS011;32503;47.748;8.960;2022-07-24T06:49:29;13.70;;;12.70;;
3149;SDS011;32503;47.748;8.960;2022-07-24T06:51:57;15.77;;;14.50;;
3149;SDS011;32503;47.748;8.960;2022-07-24T06:54:24;14.47;;;13.07;;
3149;SDS011;32503;47.748;8.960;2022-07-24T06:56:51;13.87;;;12.97;;
3149;SDS011;32503;47.748;8.960;2022-07-24T06:59:18;13.97;;;12.83;;
3149;SDS011;32503;47.748;8.960;2022-07-24T07:01:45;15.27;;;14.17;;
3149;SDS011;32503;47.748;8.960;2022-07-24T07:04:12;14.40;;;13.27;;
3149;SDS011;32503;47.748;8.960;2022-07-24T07:06:41;15.37;;;14.17;;
3149;SDS011;32503;47.748;8.960;2022-07-24T07:09:08;14.87;;;13.67;;
3149;SDS011;32503;47.748;8.960;2022-07-24T07:11:35;13.60;;;12.50;;
3149;SDS011;32503;47.748;8.960;2022-07-24T07:14:02;14.30;;;13.20;;
3149;SDS011;32503;47.748;8.960;2022-07-24T07:16:29;14.97;;;13.70;;
3149;SDS011;32503;47.748;8.960;2022-07-24T07:18:56;14.60;;;13.70;;
3149;SDS011;32503;47.748;8.960;2022-07-24T07:21:23;13.07;;;12.37;;
3149;SDS011;32503;47.748;8.960;2022-07-24T07:23:52;13.80;;;12.90;;
3149;SDS011;32503;47.748;8.960;2022-07-24T07:26:19;15.83;;;14.53;;
3149;SDS011;32503;47.748;8.960;2022-07-24T07:28:46;14.50;;;13.60;;
3149;SDS011;32503;47.748;8.960;2022-07-24T07:31:13;14.63;;;13.53;;
3149;SDS011;32503;47.748;8.960;2022-07-24T07:33:40;13.60;;;12.60;;
3149;SDS011;32503;47.748;8.960;2022-07-24T07:36:07;13.97;;;13.00;;
3149;SDS011;32503;47.748;8.960;2022-07-24T07:38:35;15.27;;;14.27;;
3149;SDS011;32503;47.748;8.960;2022-07-24T07:41:05;15.00;;;13.70;;
3149;SDS011;32503;47.748;8.960;2022-07-24T07:43:32;15.53;;;14.43;;
3149;SDS011;32503;47.748;8.960;2022-07-24T07:45:59;13.20;;;12.30;;
3149;SDS011;32503;47.748;8.960;2022-07-24T07:48:26;12.73;;;11.93;;
3149;SDS011;32503;47.748;8.960;2022-07-24T07:50:55;13.00;;;12.20;;
3149;SDS011;32503;47.748;8.960;2022-07-24T07:53:22;13.13;;;12.33;;
3149;SDS011;32503;47.748;8.960;2022-07-24T07:55:50;12.93;;;12.13;;
3149;SDS011;32503;47.748;8.960;2022-07-24T07:58:19;12.27;;;11.40;;
3149;SDS011;32503;47.748;8.960;2022-07-24T08:00:47;12.67;;;11.93;;
3149;SDS011;32503;47.748;8.960;2022-07-24T08:03:15;13.50;;;12.60;;
3149;SDS011;32503;47.748;8.960;2022-07-24T08:05:42;14.10;;;13.07;;
3149;SDS011;32503;47.748;8.960;2022-07-24T08:08:09;13.60;;;12.60;;
3149;SDS011;32503;47.748;8.960;2022-07-24T08:10:36;12.90;;;12.10;;
3149;SDS011;32503;47.748;8.960;2022-07-24T08:13:06;13.80;;;12.60;;
3149;SDS011;32503;47.748;8.960;2022-07-24T08:15:34;13.93;;;12.63;;
3149;SDS011;32503;47.748;8.960;2022-07-24T08:18:01;14.20;;;13.30;;
3149;SDS011;32503;47.748;8.960;2022-07-24T08:20:28;13.00;;;12.10;;
3149;SDS011;32503;47.748;8.960;2022-07-24T08:22:56;13.90;;;12.97;;
3149;SDS011;32503;47.748;8.960;2022-07-24T08:25:23;13.50;;;12.60;;
3149;SDS011;32503;47.748;8.960;2022-07-24T08:27:50;14.67;;;13.57;;
3149;SDS011;32503;47.748;8.960;2022-07-24T08:30:17;13.03;;;12.23;;
3149;SDS011;32503;47.748;8.960;2022-07-24T08:32:48;13.23;;;12.43;;
3149;SDS011;32503;47.748;8.960;2022-07-24T08:35:15;13.27;;;12.17;;
3149;SDS011;32503;47.748;8.960;2022-07-24T08:37:42;13.37;;;12.47;;
3149;SDS011;32503;47.748;8.960;2022-07-24T08:40:10;13.50;;;12.60;;
3149;SDS011;32503;47.748;8.960;2022-07-24T08:42:39;13.40;;;12.50;;
3149;SDS011;32503;47.748;8.960;2022-07-24T08:45:07;13.23;;;12.30;;
3149;SDS011;32503;47.748;8.960;2022-07-24T08:47:35;13.33;;;12.33;;
3149;SDS011;32503;47.748;8.960;2022-07-24T08:50:07;14.43;;;13.53;;
3149;SDS011;32503;47.748;8.960;2022-07-24T08:52:35;13.90;;;12.73;;
3149;SDS011;32503;47.748;8.960;2022-07-24T08:55:05;14.00;;;12.90;;
3149;SDS011;32503;47.748;8.960;2022-07-24T08:57:33;12.20;;;11.50;;
3149;SDS011;32503;47.748;8.960;2022-07-24T09:00:00;13.47;;;12.57;;
3149;SDS011;32503;47.748;8.960;2022-07-24T09:02:27;13.83;;;12.93;;
3149;SDS011;32503;47.748;8.960;2022-07-24T09:04:58;13.87;;;12.90;;
3149;SDS011;32503;47.748;8.960;2022-07-24T09:07:29;13.23;;;12.30;;
3149;SDS011;32503;47.748;8.960;2022-07-24T09:09:57;14.70;;;13.60;;
3149;SDS011;32503;47.748;8.960;2022-07-24T09:12:29;14.80;;;13.77;;
3149;SDS011;32503;47.748;8.960;2022-07-24T09:14:58;13.90;;;13.00;;
3149;SDS011;32503;47.748;8.960;2022-07-24T09:17:27;13.13;;;12.30;;
3149;SDS011;32503;47.748;8.960;2022-07-24T09:19:55;13.33;;;12.43;;
3149;SDS011;32503;47.748;8.960;2022-07-24T09:22:32;14.00;;;12.77;;
3149;SDS011;32503;47.748;8.960;2022-07-24T09:25:06;13.97;;;13.00;;
3149;SDS011;32503;47.748;8.960;2022-07-24T09:27:37;14.43;;;13.33;;
3149;SDS011;32503;47.748;8.960;2022-07-24T09:30:07;14.37;;;13.27;;
3149;SDS011;32503;47.748;8.960;2022-07-24T09:32:36;14.50;;;13.50;;
3149;SDS011;32503;47.748;8.960;2022-07-24T09:35:03;13.80;;;12.90;;
3149;SDS011;32503;47.748;8.960;2022-07-24T09:37:34;14.43;;;13.10;;
3149;SDS011;32503;47.748;8.960;2022-07-24T09:40:09;14.20;;;13.17;;
3149;SDS011;32503;47.748;8.960;2022-07-24T09:42:38;14.50;;;13.40;;
3149;SDS011;32503;47.748;8.960;2022-07-24T09:45:06;14.13;;;13.13;;
3149;SDS011;32503;47.748;8.960;2022-07-24T09:47:36;14.30;;;13.33;;
3149;SDS011;32503;47.748;8.960;2022-07-24T09:50:11;13.63;;;12.73;;
3149;SDS011;32503;47.748;8.960;2022-07-24T09:52:42;14.20;;;13.10;;
3149;SDS011;32503;47.748;8.960;2022-07-24T09:55:20;13.97;;;12.87;;
3149;SDS011;32503;47.748;8.960;2022-07-24T09:57:50;14.07;;;13.03;;
3149;SDS011;32503;47.748;8.960;2022-07-24T10:00:18;12.50;;;11.70;;
3149;SDS011;32503;47.748;8.960;2022-07-24T10:02:46;13.77;;;12.83;;
3149;SDS011;32503;47.748;8.960;2022-07-24T10:05:15;12.93;;;11.97;;
3149;SDS011;32503;47.748;8.960;2022-07-24T10:07:45;13.77;;;12.67;;
3149;SDS011;32503;47.748;8.960;2022-07-24T10:10:14;12.93;;;12.23;;
3149;SDS011;32503;47.748;8.960;2022-07-24T10:12:42;13.60;;;12.70;;
3149;SDS011;32503;47.748;8.960;2022-07-24T10:15:12;13.13;;;12.17;;
3149;SDS011;32503;47.748;8.960;2022-07-24T10:20:42;12.70;;;12.00;;
3149;SDS011;32503;47.748;8.960;2022-07-24T10:23:20;12.67;;;11.87;;
3149;SDS011;32503;47.748;8.960;2022-07-24T10:25:54;13.40;;;12.60;;
3149;SDS011;32503;47.748;8.960;2022-07-24T10:28:37;13.20;;;12.30;;
3149;SDS011;32503;47.748;8.960;2022-07-24T10:31:07;13.30;;;12.30;;
3149;SDS011;32503;47.748;8.960;2022-07-24T10:33:37;13.10;;;12.20;;
3149;SDS011;32503;47.748;8.960;2022-07-24T10:36:10;13.90;;;13.00;;
3149;SDS011;32503;47.748;8.960;2022-07-24T10:38:48;14.33;;;13.43;;
3149;SDS011;32503;47.748;8.960;2022-07-24T10:41:24;13.63;;;12.73;;
3149;SDS011;32503;47.748;8.960;2022-07-24T10:49:45;13.93;;;12.80;;
3149;SDS011;32503;47.748;8.960;2022-07-24T10:52:21;14.90;;;13.70;;
3149;SDS011;32503;47.748;8.960;2022-07-24T10:57:59;13.80;;;12.90;;
3149;SDS011;32503;47.748;8.960;2022-07-24T11:00:30;14.83;;;13.80;;
3149;SDS011;32503;47.748;8.960;2022-07-24T11:03:00;13.90;;;12.90;;
3149;SDS011;32503;47.748;8.960;2022-07-24T11:05:31;14.00;;;13.07;;
3149;SDS011;32503;47.748;8.960;2022-07-24T11:11:09;14.40;;;13.30;;
3149;SDS011;32503;47.748;8.960;2022-07-24T11:13:51;13.80;;;12.83;;
3149;SDS011;32503;47.748;8.960;2022-07-24T11:16:23;14.97;;;13.87;;
3149;SDS011;32503;47.748;8.960;2022-07-24T11:22:03;13.70;;;12.90;;
3149;SDS011;32503;47.748;8.960;2022-07-24T11:24:33;13.80;;;12.90;;
3149;SDS011;32503;47.748;8.960;2022-07-24T11:27:05;13.97;;;12.90;;
3149;SDS011;32503;47.748;8.960;2022-07-24T11:29:39;12.93;;;12.13;;
3149;SDS011;32503;47.748;8.960;2022-07-24T11:32:07;14.00;;;13.07;;
3149;SDS011;32503;47.748;8.960;2022-07-24T11:34:39;13.20;;;12.30;;
3149;SDS011;32503;47.748;8.960;2022-07-24T11:37:10;15.00;;;13.90;;
3149;SDS011;32503;47.748;8.960;2022-07-24T11:39:39;13.57;;;12.70;;
3149;SDS011;32503;47.748;8.960;2022-07-24T11:42:10;13.43;;;12.63;;
3149;SDS011;32503;47.748;8.960;2022-07-24T11:44:39;13.70;;;12.80;;
3149;SDS011;32503;47.748;8.960;2022-07-24T11:47:09;13.67;;;12.67;;
3149;SDS011;32503;47.748;8.960;2022-07-24T11:49:40;13.43;;;12.53;;
3149;SDS011;32503;47.748;8.960;2022-07-24T11:52:12;13.63;;;12.63;;
3149;SDS011;32503;47.748;8.960;2022-07-24T11:54:41;13.70;;;12.60;;
3149;SDS011;32503;47.748;8.960;2022-07-24T11:57:17;12.90;;;12.10;;
3149;SDS011;32503;47.748;8.960;2022-07-24T11:59:47;14.07;;;12.97;;
3149;SDS011;32503;47.748;8.960;2022-07-24T12:02:15;12.90;;;12.00;;
3149;SDS011;32503;47.748;8.960;2022-07-24T12:04:44;14.33;;;13.17;;
3149;SDS011;32503;47.748;8.960;2022-07-24T12:07:13;13.20;;;12.40;;
3149;SDS011;32503;47.748;8.960;2022-07-24T12:09:49;12.47;;;11.67;;
3149;SDS011;32503;47.748;8.960;2022-07-24T12:12:20;13.17;;;11.87;;
3149;SDS011;32503;47.748;8.960;2022-07-24T12:14:50;12.57;;;11.70;;
3149;SDS011;32503;47.748;8.960;2022-07-24T12:17:20;13.20;;;12.40;;
3149;SDS011;32503;47.748;8.960;2022-07-24T12:19:50;13.00;;;12.10;;
3149;SDS011;32503;47.748;8.960;2022-07-24T12:22:20;12.40;;;11.70;;
3149;SDS011;32503;47.748;8.960;2022-07-24T12:24:49;12.93;;;11.90;;
3149;SDS011;32503;47.748;8.960;2022-07-24T12:27:37;11.73;;;11.03;;
3149;SDS011;32503;47.748;8.960;2022-07-24T12:30:20;12.90;;;12.10;;
3149;SDS011;32503;47.748;8.960;2022-07-24T12:32:57;12.70;;;11.90;;
3149;SDS011;32503;47.748;8.960;2022-07-24T12:35:27;12.70;;;11.80;;
3149;SDS011;32503;47.748;8.960;2022-07-24T12:37:55;13.20;;;12.17;;
3149;SDS011;32503;47.748;8.960;2022-07-24T12:40:25;12.13;;;11.37;;
3149;SDS011;32503;47.748;8.960;2022-07-24T12:43:03;12.13;;;11.33;;
3149;SDS011;32503;47.748;8.960;2022-07-24T12:45:35;12.97;;;12.07;;
3149;SDS011;32503;47.748;8.960;2022-07-24T12:48:10;12.27;;;11.37;;
3149;SDS011;32503;47.748;8.960;2022-07-24T12:53:36;11.63;;;11.03;;
3149;SDS011;32503;47.748;8.960;2022-07-24T12:56:07;11.00;;;10.40;;
3149;SDS011;32503;47.748;8.960;2022-07-24T12:58:49;11.73;;;11.13;;
3149;SDS011;32503;47.748;8.960;2022-07-24T13:01:22;11.50;;;10.53;;
3149;SDS011;32503;47.748;8.960;2022-07-24T13:03:55;11.40;;;10.70;;
3149;SDS011;32503;47.748;8.960;2022-07-24T13:06:36;10.97;;;10.27;;
3149;SDS011;32503;47.748;8.960;2022-07-24T13:09:06;11.37;;;10.70;;
3149;SDS011;32503;47.748;8.960;2022-07-24T13:11:35;10.50;;;9.90;;
3149;SDS011;32503;47.748;8.960;2022-07-24T13:14:05;11.20;;;10.30;;
3149;SDS011;32503;47.748;8.960;2022-07-24T13:16:34;11.57;;;10.87;;
3149;SDS011;32503;47.748;8.960;2022-07-24T13:19:04;10.43;;;9.83;;
3149;SDS011;32503;47.748;8.960;2022-07-24T13:21:32;10.70;;;10.00;;
3149;SDS011;32503;47.748;8.960;2022-07-24T13:24:00;11.77;;;11.07;;
3149;SDS011;32503;47.748;8.960;2022-07-24T13:26:27;10.30;;;9.80;;
3149;SDS011;32503;47.748;8.960;2022-07-24T13:28:54;11.17;;;10.57;;
3149;SDS011;32503;47.748;8.960;2022-07-24T13:31:22;10.10;;;9.50;;
3149;SDS011;32503;47.748;8.960;2022-07-24T13:33:50;10.23;;;9.73;;
3149;SDS011;32503;47.748;8.960;2022-07-24T13:36:17;10.37;;;9.87;;
3149;SDS011;32503;47.748;8.960;2022-07-24T13:38:45;9.70;;;9.30;;
3149;SDS011;32503;47.748;8.960;2022-07-24T13:41:13;10.30;;;9.77;;
3149;SDS011;32503;47.748;8.960;2022-07-24T13:43:42;9.87;;;9.13;;
3149;SDS011;32503;47.748;8.960;2022-07-24T13:46:09;9.60;;;9.00;;
3149;SDS011;32503;47.748;8.960;2022-07-24T13:48:37;10.40;;;9.80;;
3149;SDS011;32503;47.748;8.960;2022-07-24T13:51:05;10.57;;;9.77;;
3149;SDS011;32503;47.748;8.960;2022-07-24T13:53:32;10.00;;;9.40;;
3149;SDS011;32503;47.748;8.960;2022-07-24T13:55:59;10.27;;;9.70;;
3149;SDS011;32503;47.748;8.960;2022-07-24T13:58:26;10.60;;;10.10;;
3149;SDS011;32503;47.748;8.960;2022-07-24T14:00:53;10.83;;;10.20;;
3149;SDS011;32503;47.748;8.960;2022-07-24T14:03:20;10.47;;;9.83;;
3149;SDS011;32503;47.748;8.960;2022-07-24T14:05:49;9.70;;;9.10;;
3149;SDS011;32503;47.748;8.960;2022-07-24T14:08:16;9.93;;;9.13;;
3149;SDS011;32503;47.748;8.960;2022-07-24T14:10:43;11.33;;;10.43;;
3149;SDS011;32503;47.748;8.960;2022-07-24T14:13:10;9.60;;;9.10;;
3149;SDS011;32503;47.748;8.960;2022-07-24T14:15:37;10.33;;;9.53;;
3149;SDS011;32503;47.748;8.960;2022-07-24T14:18:04;9.17;;;8.70;;
3149;SDS011;32503;47.748;8.960;2022-07-24T14:20:31;10.80;;;10.20;;
3149;SDS011;32503;47.748;8.960;2022-07-24T14:23:00;10.03;;;9.53;;
3149;SDS011;32503;47.748;8.960;2022-07-24T14:25:27;10.10;;;9.53;;
3149;SDS011;32503;47.748;8.960;2022-07-24T14:27:54;9.67;;;9.17;;
3149;SDS011;32503;47.748;8.960;2022-07-24T14:30:21;9.67;;;9.07;;
3149;SDS011;32503;47.748;8.960;2022-07-24T14:32:49;9.90;;;9.50;;
3149;SDS011;32503;47.748;8.960;2022-07-24T14:35:16;10.50;;;9.87;;
3149;SDS011;32503;47.748;8.960;2022-07-24T14:37:43;9.90;;;9.23;;
3149;SDS011;32503;47.748;8.960;2022-07-24T14:40:12;10.20;;;9.50;;
3149;SDS011;32503;47.748;8.960;2022-07-24T14:42:39;9.80;;;9.40;;
3149;SDS011;32503;47.748;8.960;2022-07-24T14:45:06;11.50;;;10.70;;
3149;SDS011;32503;47.748;8.960;2022-07-24T14:47:34;10.97;;;10.27;;
3149;SDS011;32503;47.748;8.960;2022-07-24T14:50:03;10.20;;;9.70;;
3149;SDS011;32503;47.748;8.960;2022-07-24T14:52:32;10.80;;;10.10;;
3149;SDS011;32503;47.748;8.960;2022-07-24T14:54:59;9.80;;;9.30;;
3149;SDS011;32503;47.748;8.960;2022-07-24T14:57:28;10.00;;;9.50;;
3149;SDS011;32503;47.748;8.960;2022-07-24T14:59:55;10.20;;;9.67;;
3149;SDS011;32503;47.748;8.960;2022-07-24T15:02:22;10.20;;;9.40;;
3149;SDS011;32503;47.748;8.960;2022-07-24T15:04:49;10.20;;;9.70;;